createdAt,value
2023-01-19T00:00:27.125Z,100001.56
2023-01-19T00:02:54.954Z,99996.59
2023-01-19T00:05:21.790Z,100008.66
2023-01-19T00:07:48.308Z,100006.19
2023-01-19T00:10:15.175Z,100017.44
2023-01-19T00:12:41.647Z,100014.22
2023-01-19T00:15:08.800Z,100017.00
2023-01-19T00:17:35.361Z,100012.84
2023-01-19T00:20:01.917Z,100014.53
2023-01-19T00:22:28.315Z,100011.13
2023-01-19T00:24:54.818Z,100006.91
2023-01-19T00:27:21.219Z,99994.13
2023-01-19T00:29:47.647Z,99993.25
2023-01-19T00:32:14.155Z,99990.69
2023-01-19T00:34:49.306Z,99994.09
2023-01-19T00:37:16.859Z,99984.69
2023-01-19T00:39:43.590Z,99979.47
2023-01-19T00:42:31.745Z,99976.84
2023-01-19T00:44:58.252Z,99986.19
2023-01-19T00:47:25.286Z,99976.81
2023-01-19T00:49:51.772Z,99974.19
2023-01-19T00:52:18.135Z,99974.13
2023-01-19T00:54:44.541Z,99975.78
2023-01-19T00:57:10.983Z,99976.59
2023-01-19T00:59:37.357Z,99979.19
2023-01-19T01:02:04.076Z,99985.19
2023-01-19T01:04:30.796Z,99979.16
2023-01-19T01:06:57.325Z,99976.63
2023-01-19T01:09:24.223Z,99976.59
2023-01-19T01:11:50.728Z,99973.97
2023-01-19T01:14:18.049Z,99981.66
2023-01-19T01:16:44.667Z,99978.16
2023-01-19T01:19:11.123Z,99978.13
2023-01-19T01:21:37.530Z,99978.88
2023-01-19T01:24:04.623Z,99977.94
2023-01-19T01:26:31.039Z,99975.34
2023-01-19T01:28:57.474Z,99981.28
2023-01-19T01:31:24.002Z,99979.53
2023-01-19T01:33:50.631Z,99976.97
2023-01-19T01:36:18.943Z,99977.84
2023-01-19T01:38:45.424Z,99982.06
2023-01-19T01:41:12.236Z,99978.66
2023-01-19T01:43:48.092Z,99990.56
2023-01-19T01:46:16.253Z,99989.72
2023-01-19T01:48:52.589Z,99993.13
2023-01-19T01:51:34.594Z,99993.09
2023-01-19T01:54:07.128Z,99985.31
2023-01-19T01:56:43.670Z,99976.75
2023-01-19T01:59:18.037Z,99986.06
2023-01-19T02:02:03.372Z,99980.03
2023-01-19T02:04:31.610Z,99988.53
2023-01-19T02:07:16.824Z,99989.31
2023-01-19T02:10:02.113Z,99991.00
2023-01-19T02:12:47.434Z,99985.75
2023-01-19T02:15:20.237Z,99996.78
2023-01-19T02:17:47.519Z,100005.19
2023-01-19T02:20:14.817Z,99994.88
2023-01-19T02:22:50.320Z,100002.44
2023-01-19T02:25:19.233Z,99998.06
2023-01-19T02:27:46.411Z,100008.16
2023-01-19T02:30:14.123Z,100004.53
2023-01-19T02:32:40.523Z,100012.88
2023-01-19T02:35:07.281Z,100020.44
2023-01-19T02:37:37.604Z,100015.97
2023-01-19T02:40:07.854Z,100015.88
2023-01-19T02:42:36.875Z,100020.91
2023-01-19T02:45:06.796Z,100025.03
2023-01-19T02:47:43.186Z,100024.13
2023-01-19T02:50:57.370Z,100032.72
2023-01-19T02:53:47.527Z,100039.50
2023-01-19T02:56:28.842Z,100047.22
2023-01-19T02:59:06.318Z,100039.50
2023-01-19T03:01:42.975Z,100048.84
2023-01-19T03:04:40.722Z,100049.75
2023-01-19T03:07:30.579Z,100054.03
2023-01-19T03:10:12.795Z,100061.81
2023-01-19T03:12:42.151Z,100064.38
2023-01-19T03:15:18.290Z,100048.19
2023-01-19T03:17:48.752Z,100043.09
2023-01-19T03:20:20.135Z,100060.22
2023-01-19T03:22:52.157Z,100046.56
2023-01-19T03:25:20.283Z,100053.47
2023-01-19T03:27:49.845Z,100065.41
2023-01-19T03:30:22.301Z,100065.34
2023-01-19T03:32:54.767Z,100058.44
2023-01-19T03:35:26.077Z,100060.00
2023-01-19T03:37:56.034Z,100048.81
2023-01-19T03:40:23.771Z,100071.06
2023-01-19T03:42:50.436Z,100066.81
2023-01-19T03:45:18.217Z,100072.84
2023-01-19T03:47:45.153Z,100085.69
2023-01-19T03:50:24.161Z,100085.69
2023-01-19T03:53:01.270Z,100087.47
2023-01-19T03:55:27.972Z,100090.09
2023-01-19T03:57:54.341Z,100085.06
2023-01-19T04:00:20.957Z,100099.63
2023-01-19T04:02:47.443Z,100105.69
2023-01-19T04:05:14.434Z,100105.78
2023-01-19T04:07:41.384Z,100099.00
2023-01-19T04:10:12.549Z,100099.03
2023-01-19T04:12:40.072Z,100099.97
2023-01-19T04:15:07.241Z,100094.06
2023-01-19T04:17:33.667Z,100094.97
2023-01-19T04:20:00.415Z,100104.44
2023-01-19T04:22:26.916Z,100097.66
2023-01-19T04:24:53.611Z,100094.31
2023-01-19T04:27:20.076Z,100104.59
2023-01-19T04:29:46.576Z,100105.53
2023-01-19T04:32:13.830Z,100096.19
2023-01-19T04:34:41.659Z,100109.06
2023-01-19T04:37:08.561Z,100105.69
2023-01-19T04:39:35.401Z,100104.06
2023-01-19T04:42:02.334Z,100112.63
2023-01-19T04:44:29.101Z,100124.66
2023-01-19T04:46:55.571Z,100118.72
2023-01-19T04:49:21.998Z,100122.19
2023-01-19T04:51:48.473Z,100113.69
2023-01-19T04:54:14.946Z,100127.34
2023-01-19T04:56:41.448Z,100130.00
2023-01-19T04:59:08.032Z,100134.28
2023-01-19T05:01:34.644Z,100140.31
2023-01-19T05:04:03.667Z,100148.00
2023-01-19T05:06:30.090Z,100149.72
2023-01-19T05:08:56.508Z,100152.31
2023-01-19T05:11:22.948Z,100164.25
2023-01-19T05:13:50.991Z,100162.50
2023-01-19T05:16:18.066Z,100165.06
2023-01-19T05:18:44.656Z,100163.34
2023-01-19T05:21:11.251Z,100158.22
2023-01-19T05:23:37.698Z,100160.81
2023-01-19T05:26:04.367Z,100158.25
2023-01-19T05:28:32.710Z,100163.38
2023-01-19T05:30:59.181Z,100165.94
2023-01-19T05:33:26.296Z,100166.75
2023-01-19T05:35:53.781Z,100177.81
2023-01-19T05:38:34.227Z,100173.50
2023-01-19T05:41:01.625Z,100169.16
2023-01-19T05:43:28.156Z,100177.66
2023-01-19T05:45:54.574Z,100176.72
2023-01-19T05:48:21.049Z,100173.22
2023-01-19T05:50:49.457Z,100180.78
2023-01-19T05:53:17.136Z,100185.03
2023-01-19T05:55:43.568Z,100187.56
2023-01-19T05:58:10.030Z,100198.63
2023-01-19T06:00:36.502Z,100196.03
2023-01-19T06:03:03.844Z,100196.88
2023-01-19T06:05:30.751Z,100200.34
2023-01-19T06:07:57.248Z,100199.56
2023-01-19T06:10:23.905Z,100203.84
2023-01-19T06:12:51.697Z,100203.09
2023-01-19T06:15:19.014Z,100215.91
2023-01-19T06:17:45.731Z,100226.97
2023-01-19T06:20:14.057Z,100226.88
2023-01-19T06:22:40.508Z,100222.56
2023-01-19T06:25:07.200Z,100231.84
2023-01-19T06:27:33.721Z,100240.16
2023-01-19T06:30:00.388Z,100262.84
2023-01-19T06:32:26.864Z,100244.75
2023-01-19T06:34:54.075Z,100235.28
2023-01-19T06:37:20.698Z,100246.97
2023-01-19T06:39:47.117Z,100257.91
2023-01-19T06:42:15.532Z,100255.41
2023-01-19T06:44:47.392Z,100251.19
2023-01-19T06:47:16.406Z,100263.28
2023-01-19T06:49:43.326Z,100268.56
2023-01-19T06:52:18.364Z,100269.50
2023-01-19T06:54:45.449Z,100273.91
2023-01-19T06:57:12.277Z,100273.13
2023-01-19T06:59:38.918Z,100272.31
2023-01-19T07:02:27.416Z,100274.91
2023-01-19T07:04:52.454Z,100287.78
2023-01-19T07:07:18.978Z,100287.91
2023-01-19T07:09:49.592Z,100292.34
2023-01-19T07:12:20.356Z,100294.22
2023-01-19T07:14:46.752Z,100297.75
2023-01-19T07:17:13.148Z,100306.44
2023-01-19T07:19:39.562Z,100311.75
2023-01-19T07:22:05.970Z,100306.69
2023-01-19T07:24:34.254Z,100319.66
2023-01-19T07:27:00.798Z,100325.72
2023-01-19T07:29:27.325Z,100323.28
2023-01-19T07:31:56.765Z,100331.84
2023-01-19T07:34:23.322Z,100334.38
2023-01-19T07:36:49.703Z,100337.75
2023-01-19T07:39:16.142Z,100341.09
2023-01-19T07:41:42.664Z,100344.44
2023-01-19T07:44:09.458Z,100340.13
2023-01-19T07:46:35.857Z,100353.69
2023-01-19T07:49:02.293Z,100356.22
2023-01-19T07:51:28.695Z,100363.00
2023-01-19T07:53:55.132Z,100367.22
2023-01-19T07:56:22.427Z,100373.25
2023-01-19T07:58:50.319Z,100380.94
2023-01-19T08:01:16.845Z,100390.38
2023-01-19T08:03:43.831Z,100400.59
2023-01-19T08:06:27.046Z,100399.63
2023-01-19T08:08:53.542Z,100386.81
2023-01-19T08:11:19.968Z,100392.84
2023-01-19T08:13:46.382Z,100400.56
2023-01-19T08:16:12.875Z,100399.00
2023-01-19T08:18:39.670Z,100405.06
2023-01-19T08:21:06.108Z,100410.28
2023-01-19T08:23:32.589Z,100409.53
2023-01-19T08:25:58.950Z,100410.44
2023-01-19T08:28:26.005Z,100414.78
2023-01-19T08:30:55.459Z,100416.53
2023-01-19T08:33:23.949Z,100429.38
2023-01-19T08:35:53.347Z,100428.56
2023-01-19T08:38:19.858Z,100430.28
2023-01-19T08:40:46.472Z,100434.53
2023-01-19T08:43:15.596Z,100434.41
2023-01-19T08:45:49.052Z,100440.22
2023-01-19T08:48:17.748Z,100440.00
2023-01-19T08:50:47.171Z,100449.19
2023-01-19T08:53:13.996Z,100445.59
2023-01-19T08:55:40.596Z,100444.63
2023-01-19T08:58:08.782Z,100449.72
2023-01-19T09:00:38.019Z,100460.03
2023-01-19T09:03:06.443Z,100459.31
2023-01-19T09:05:38.789Z,100456.78
2023-01-19T09:08:09.151Z,100456.78
2023-01-19T09:10:37.719Z,100461.09
2023-01-19T09:13:05.483Z,100460.25
2023-01-19T09:15:35.699Z,100462.84
2023-01-19T09:18:04.792Z,100466.28
2023-01-19T09:20:32.283Z,100466.28
2023-01-19T09:22:58.771Z,100470.56
2023-01-19T09:25:25.222Z,100469.72
2023-01-19T09:27:52.011Z,100468.88
2023-01-19T09:30:19.139Z,100473.19
2023-01-19T09:32:45.871Z,100475.78
2023-01-19T09:35:12.477Z,100476.63
2023-01-19T09:37:39.090Z,100477.41
2023-01-19T09:40:06.660Z,100482.31
2023-01-19T09:42:39.404Z,100484.69
2023-01-19T09:45:12.246Z,100482.66
2023-01-19T09:47:39.133Z,100490.09
2023-01-19T09:50:13.950Z,100489.78
2023-01-19T09:52:48.014Z,100491.16
2023-01-19T09:55:22.632Z,100492.50
2023-01-19T09:57:49.083Z,100495.56
2023-01-19T10:00:19.084Z,100502.03
2023-01-19T10:03:20.568Z,100496.41
2023-01-19T10:05:55.409Z,100493.63
2023-01-19T10:08:52.354Z,100497.56
2023-01-19T10:11:51.577Z,100503.28
2023-01-19T10:14:34.126Z,100506.38
2023-01-19T10:17:15.367Z,100508.66
2023-01-19T10:19:47.590Z,100502.25
2023-01-19T10:22:25.665Z,100502.66
2023-01-19T10:24:59.143Z,100513.47
2023-01-19T10:27:31.505Z,100511.34
2023-01-19T10:29:59.333Z,100514.59
2023-01-19T10:32:30.394Z,100514.53
2023-01-19T10:34:59.458Z,100522.88
2023-01-19T10:37:36.866Z,100509.81
2023-01-19T10:40:22.248Z,100520.94
2023-01-19T10:42:48.715Z,100518.47
2023-01-19T10:45:17.475Z,100514.13
2023-01-19T10:47:45.996Z,100516.59
2023-01-19T10:50:39.957Z,100520.72
2023-01-19T10:53:18.221Z,100519.72
2023-01-19T10:55:44.686Z,100512.56
2023-01-19T10:58:29.669Z,100518.38
2023-01-19T11:01:11.962Z,100509.75
2023-01-19T11:03:38.430Z,100515.66
2023-01-19T11:06:15.377Z,100519.94
2023-01-19T11:08:43.697Z,100512.50
2023-01-19T11:11:12.443Z,100522.16
2023-01-19T11:13:42.900Z,100513.50
2023-01-19T11:16:28.997Z,100521.16
2023-01-19T11:18:58.006Z,100520.22
2023-01-19T11:21:27.803Z,100523.59
2023-01-19T11:23:57.550Z,100526.91
2023-01-19T11:26:34.998Z,100526.63
2023-01-19T11:29:04.562Z,100524.53
2023-01-19T11:31:35.739Z,100524.81
2023-01-19T11:34:05.735Z,100522.28
2023-01-19T11:36:35.730Z,100520.16
2023-01-19T11:39:27.985Z,100524.00
2023-01-19T11:41:58.241Z,100525.19
2023-01-19T11:44:30.431Z,100521.00
2023-01-19T11:47:00.032Z,100530.91
2023-01-19T11:49:44.763Z,100523.47
2023-01-19T11:52:26.537Z,100524.16
2023-01-19T11:55:21.324Z,100522.69
2023-01-19T11:57:51.142Z,100519.72
2023-01-19T12:00:25.210Z,100519.72
2023-01-19T12:02:57.827Z,100516.56
2023-01-19T12:05:30.862Z,100512.66
2023-01-19T12:08:00.715Z,100524.16
2023-01-19T12:10:36.375Z,100518.91
2023-01-19T12:13:03.630Z,100514.72
2023-01-19T12:15:38.082Z,100518.84
2023-01-19T12:18:11.023Z,100529.13
2023-01-19T12:20:44.583Z,100522.50
2023-01-19T12:23:10.960Z,100524.50
2023-01-19T12:26:16.471Z,100516.94
2023-01-19T12:28:52.099Z,100523.03
2023-01-19T12:31:21.937Z,100519.53
2023-01-19T12:33:48.665Z,100521.34
2023-01-19T12:36:29.935Z,100525.34
2023-01-19T12:39:19.881Z,100522.50
2023-01-19T12:41:47.239Z,100522.34
2023-01-19T12:44:16.479Z,100529.03
2023-01-19T12:46:44.162Z,100523.00
2023-01-19T12:49:27.659Z,100534.41
2023-01-19T12:52:19.616Z,100527.03
2023-01-19T12:55:01.205Z,100540.41
2023-01-19T12:57:54.827Z,100543.38
2023-01-19T13:00:24.247Z,100544.50
2023-01-19T13:03:18.502Z,100554.03
2023-01-19T13:05:44.896Z,100541.28
2023-01-19T13:08:14.106Z,100540.56
2023-01-19T13:10:59.360Z,100546.63
2023-01-19T13:13:28.566Z,100551.94
2023-01-19T13:15:56.524Z,100547.75
2023-01-19T13:18:35.097Z,100547.75
2023-01-19T13:21:06.464Z,100555.28
2023-01-19T13:23:49.831Z,100553.38
2023-01-19T13:26:25.498Z,100550.84
2023-01-19T13:28:57.975Z,100546.53
2023-01-19T13:31:25.748Z,100551.63
2023-01-19T13:33:58.655Z,100555.72
2023-01-19T13:36:30.433Z,100547.03
2023-01-19T13:39:00.014Z,100548.00
2023-01-19T13:41:31.532Z,100554.94
2023-01-19T13:44:18.170Z,100555.84
2023-01-19T13:46:46.499Z,100559.38
2023-01-19T13:49:36.266Z,100559.19
2023-01-19T13:52:17.177Z,100567.41
2023-01-19T13:55:03.085Z,100563.53
2023-01-19T13:57:39.475Z,100572.88
2023-01-19T14:00:11.931Z,100569.56
2023-01-19T14:02:40.064Z,100574.06
2023-01-19T14:05:26.932Z,100580.09
2023-01-19T14:08:08.745Z,100575.00
2023-01-19T14:10:41.193Z,100582.09
2023-01-19T14:13:13.685Z,100580.50
2023-01-19T14:15:43.035Z,100578.19
2023-01-19T14:18:24.851Z,100582.50
2023-01-19T14:21:03.348Z,100583.53
2023-01-19T14:23:48.249Z,100589.00
2023-01-19T14:26:42.232Z,100590.13
2023-01-19T14:29:26.833Z,100592.56
2023-01-19T14:31:53.391Z,100595.28
2023-01-19T14:34:42.387Z,100601.47
2023-01-19T14:37:17.946Z,100601.69
2023-01-19T14:39:47.141Z,100599.31
2023-01-19T14:42:21.387Z,100599.41
2023-01-19T14:44:51.561Z,100602.16
2023-01-19T14:47:31.772Z,100605.75
2023-01-19T14:50:03.550Z,100609.31
2023-01-19T14:52:38.641Z,100613.59
2023-01-19T14:55:08.254Z,100606.72
2023-01-19T14:57:36.504Z,100605.94
2023-01-19T15:00:12.396Z,100605.09
2023-01-19T15:02:38.825Z,100606.88
2023-01-19T15:05:05.949Z,100605.19
2023-01-19T15:07:32.643Z,100603.63
2023-01-19T15:09:59.419Z,100609.88
2023-01-19T15:12:27.836Z,100608.28
2023-01-19T15:14:54.350Z,100613.66
2023-01-19T15:17:25.578Z,100617.22
2023-01-19T15:19:56.038Z,100619.91
2023-01-19T15:22:25.268Z,100620.94
2023-01-19T15:24:51.773Z,100623.66
2023-01-19T15:27:18.286Z,100626.31
2023-01-19T15:29:46.102Z,100634.09
2023-01-19T15:32:14.182Z,100637.56
2023-01-19T15:34:41.593Z,100634.16
2023-01-19T15:37:08.512Z,100647.94
2023-01-19T15:39:35.342Z,100644.63
2023-01-19T15:42:02.001Z,100647.34
2023-01-19T15:44:29.735Z,100643.25
2023-01-19T15:46:57.380Z,100649.38
2023-01-19T15:49:24.073Z,100646.13
2023-01-19T15:51:50.617Z,100642.84
2023-01-19T15:54:18.390Z,100658.44
2023-01-19T15:56:44.935Z,100657.72
2023-01-19T15:59:11.437Z,100654.31
2023-01-19T16:01:39.816Z,100651.75
2023-01-19T16:04:07.741Z,100657.72
2023-01-19T16:06:34.372Z,100661.13
2023-01-19T16:09:01.523Z,100656.13
2023-01-19T16:11:33.577Z,100663.06
2023-01-19T16:14:00.562Z,100656.41
2023-01-19T16:16:28.421Z,100660.75
2023-01-19T16:18:55.737Z,100667.75
2023-01-19T16:21:22.702Z,100662.72
2023-01-19T16:23:49.561Z,100671.38
2023-01-19T16:26:35.149Z,100670.59
2023-01-19T16:29:08.512Z,100681.91
2023-01-19T16:31:36.190Z,100680.28
2023-01-19T16:34:02.666Z,100683.00
2023-01-19T16:36:31.912Z,100687.41
2023-01-19T16:39:08.458Z,100693.50
2023-01-19T16:41:36.160Z,100691.88
2023-01-19T16:44:03.243Z,100693.69
2023-01-19T16:46:33.838Z,100698.03
2023-01-19T16:49:12.413Z,100694.69
2023-01-19T16:51:38.874Z,100695.66
2023-01-19T16:54:06.674Z,100705.16
2023-01-19T16:56:38.331Z,100707.78
2023-01-19T16:59:04.947Z,100707.81
2023-01-19T17:01:31.592Z,100717.34
2023-01-19T17:03:58.163Z,100719.13
2023-01-19T17:06:25.089Z,100725.19
2023-01-19T17:08:52.861Z,100723.59
2023-01-19T17:11:22.623Z,100730.50
2023-01-19T17:14:00.655Z,100731.41
2023-01-19T17:16:29.180Z,100735.75
2023-01-19T17:19:00.900Z,100734.09
2023-01-19T17:21:27.757Z,100733.28
2023-01-19T17:23:55.414Z,100736.75
2023-01-19T17:26:25.282Z,100734.19
2023-01-19T17:28:52.186Z,100738.50
2023-01-19T17:31:21.795Z,100748.78
2023-01-19T17:33:50.135Z,100741.16
2023-01-19T17:36:22.194Z,100750.59
2023-01-19T17:38:49.508Z,100750.66
2023-01-19T17:41:21.920Z,100751.59
2023-01-19T17:43:50.293Z,100745.72
2023-01-19T17:46:18.048Z,100752.59
2023-01-19T17:48:44.837Z,100754.34
2023-01-19T17:51:13.043Z,100747.50
2023-01-19T17:53:41.015Z,100744.91
2023-01-19T17:56:14.100Z,100746.63
2023-01-19T17:58:41.384Z,100746.66
2023-01-19T18:01:28.838Z,100756.03
2023-01-19T18:03:55.711Z,100753.53
2023-01-19T18:06:22.520Z,100757.81
2023-01-19T18:08:50.150Z,100763.78
2023-01-19T18:11:18.565Z,100749.25
2023-01-19T18:13:46.516Z,100762.13
2023-01-19T18:16:16.462Z,100761.22
2023-01-19T18:18:44.248Z,100762.06
2023-01-19T18:21:13.225Z,100754.38
2023-01-19T18:23:40.569Z,100762.13
2023-01-19T18:26:10.715Z,100759.56
2023-01-19T18:28:37.393Z,100761.22
2023-01-19T18:31:12.341Z,100773.13
2023-01-19T18:33:39.537Z,100768.84
2023-01-19T18:36:06.855Z,100779.94
2023-01-19T18:38:33.901Z,100782.47
2023-01-19T18:41:21.393Z,100788.38
2023-01-19T18:43:49.889Z,100776.47
2023-01-19T18:46:18.791Z,100775.63
2023-01-19T18:48:45.605Z,100780.81
2023-01-19T18:51:14.528Z,100779.13
2023-01-19T18:53:41.558Z,100784.31
2023-01-19T18:56:08.636Z,100774.94
2023-01-19T18:58:37.886Z,100778.41
2023-01-19T19:01:05.457Z,100783.56
2023-01-19T19:03:31.925Z,100785.22
2023-01-19T19:06:03.052Z,100794.66
2023-01-19T19:08:30.046Z,100794.59
2023-01-19T19:10:56.447Z,100797.97
2023-01-19T19:13:23.609Z,100806.50
2023-01-19T19:15:52.742Z,100823.63
2023-01-19T19:18:19.496Z,100834.72
2023-01-19T19:20:45.858Z,100844.13
2023-01-19T19:23:12.301Z,100846.66
2023-01-19T19:25:38.953Z,100847.53
2023-01-19T19:28:05.941Z,100846.66
2023-01-19T19:30:34.458Z,100851.75
2023-01-19T19:33:01.187Z,100851.75
2023-01-19T19:35:27.599Z,100853.47
2023-01-19T19:37:57.552Z,100854.31
2023-01-19T19:40:25.637Z,100853.47
2023-01-19T19:42:52.117Z,100865.41
2023-01-19T19:45:19.405Z,100862.00
2023-01-19T19:47:45.831Z,100867.16
2023-01-19T19:50:12.729Z,100874.88
2023-01-19T19:52:40.505Z,100874.03
2023-01-19T19:55:09.328Z,100880.91
2023-01-19T19:57:35.991Z,100883.59
2023-01-19T20:00:04.558Z,100886.16
2023-01-19T20:02:31.836Z,100881.09
2023-01-19T20:04:58.716Z,100883.75
2023-01-19T20:07:25.437Z,100883.81
2023-01-19T20:09:55.558Z,100880.41
2023-01-19T20:12:22.478Z,100892.34
2023-01-19T20:14:49.317Z,100888.09
2023-01-19T20:17:16.049Z,100901.78
2023-01-19T20:19:45.567Z,100900.94
2023-01-19T20:22:12.447Z,100900.13
2023-01-19T20:24:39.060Z,100899.34
2023-01-19T20:27:05.535Z,100904.47
2023-01-19T20:29:32.155Z,100899.34
2023-01-19T20:31:58.604Z,100901.06
2023-01-19T20:34:28.628Z,100904.53
2023-01-19T20:36:57.016Z,100907.09
2023-01-19T20:39:24.733Z,100908.81
2023-01-19T20:41:52.486Z,100907.16
2023-01-19T20:44:26.652Z,100909.72
2023-01-19T20:46:54.763Z,100921.75
2023-01-19T20:49:21.809Z,100921.78
2023-01-19T20:51:48.477Z,100925.16
2023-01-19T20:54:17.610Z,100921.75
2023-01-19T20:56:44.245Z,100916.63
2023-01-19T20:59:11.949Z,100927.75
2023-01-19T21:01:39.668Z,100933.75
2023-01-19T21:04:06.671Z,100932.91
2023-01-19T21:06:33.345Z,100920.94
2023-01-19T21:08:59.748Z,100924.38
2023-01-19T21:11:26.550Z,100932.06
2023-01-19T21:13:55.711Z,100920.97
2023-01-19T21:16:28.316Z,100923.53
2023-01-19T21:18:54.993Z,100921.88
2023-01-19T21:21:30.461Z,100923.63
2023-01-19T21:23:59.492Z,100934.75
2023-01-19T21:26:25.974Z,100937.34
2023-01-19T21:28:52.369Z,100939.97
2023-01-19T21:31:18.898Z,100936.56
2023-01-19T21:33:45.454Z,100942.59
2023-01-19T21:36:11.951Z,100942.59
2023-01-19T21:38:39.361Z,100944.34
2023-01-19T21:41:12.434Z,100945.22
2023-01-19T21:43:40.931Z,100946.94
2023-01-19T21:46:10.469Z,100947.81
2023-01-19T21:48:37.219Z,100949.53
2023-01-19T21:51:03.798Z,100954.69
2023-01-19T21:53:30.266Z,100952.16
2023-01-19T21:55:57.013Z,100956.44
2023-01-19T21:58:23.778Z,100963.28
2023-01-19T22:00:50.651Z,100971.00
2023-01-19T22:03:17.151Z,100971.00
2023-01-19T22:05:43.569Z,100963.31
2023-01-19T22:08:10.056Z,100968.47
2023-01-19T22:10:37.494Z,100976.16
2023-01-19T22:13:06.527Z,100990.69
2023-01-19T22:15:32.934Z,100990.69
2023-01-19T22:17:59.363Z,100996.69
2023-01-19T22:20:26.311Z,101000.13
2023-01-19T22:22:52.779Z,101005.22
2023-01-19T22:25:23.741Z,101000.13
2023-01-19T22:27:50.156Z,101008.63
2023-01-19T22:30:16.986Z,101008.59
2023-01-19T22:32:43.408Z,101014.56
2023-01-19T22:35:09.842Z,101015.41
2023-01-19T22:37:36.677Z,101013.66
2023-01-19T22:40:04.337Z,101013.66
2023-01-19T22:42:31.182Z,101016.22
2023-01-19T22:45:00.482Z,101012.78
2023-01-19T22:47:29.587Z,101008.53
2023-01-19T22:49:55.998Z,101016.22
2023-01-19T22:52:22.361Z,101010.22
2023-01-19T22:54:48.903Z,101008.53
2023-01-19T22:57:15.730Z,101023.91
2023-01-19T22:59:43.563Z,101021.38
2023-01-19T23:02:10.037Z,101023.09
2023-01-19T23:04:36.697Z,101025.69
2023-01-19T23:07:03.190Z,101018.00
2023-01-19T23:09:29.580Z,101022.28
2023-01-19T23:11:55.962Z,101019.72
2023-01-19T23:14:22.455Z,101019.72
2023-01-19T23:16:48.919Z,101018.88
2023-01-19T23:19:17.149Z,101014.63
2023-01-19T23:21:44.719Z,101014.63
2023-01-19T23:24:11.731Z,101015.47
2023-01-19T23:26:38.721Z,101014.63
2023-01-19T23:29:15.200Z,101009.50
2023-01-19T23:31:47.187Z,101015.50
2023-01-19T23:34:14.306Z,101015.53
2023-01-19T23:36:42.171Z,101016.41
2023-01-19T23:39:14.495Z,101018.13
2023-01-19T23:41:40.968Z,101028.38
2023-01-19T23:44:07.604Z,101025.84
2023-01-19T23:46:34.045Z,101023.31
2023-01-19T23:49:00.392Z,101030.13
2023-01-19T23:51:29.577Z,101024.19
2023-01-19T23:53:57.437Z,101018.22
2023-01-19T23:56:34.771Z,101020.78
2023-01-19T23:59:09.910Z,101036.97
